Time;durP1;ratioP1;P1;durP2;ratioP2;P2;SDS_P1;SDS_P2;PMS_P1;PMS_P2;Temp;Humidity;BMP_temperature;BMP_pressure;BME280_temperature;BME280_humidity;BME280_pressure;Samples;Min_cycle;Max_cycle;Signal;HPM_P1;HPM_P2
2023/12/15 00:00:28;;;;;;;;;;;;;;;22.58;36.16;102588.91;5028388;28;19914;-47
2023/12/15 00:02:53;;;;;;;;;;;;;;;22.58;35.80;102594.31;5020341;28;19918;-43
2023/12/15 00:05:18;;;;;;;;;;;;;;;22.58;36.08;102603.31;5009133;28;19918;-45
2023/12/15 00:07:44;;;;;;;;;;;;;;;22.58;36.12;102599.75;5011047;28;20004;-47
2023/12/15 00:10:09;;;;;;;;;;;;;;;22.38;35.78;102564.59;5009513;28;19914;-45
2023/12/15 00:12:34;;;;;;;;;;;;;;;22.60;35.83;102601.31;5024541;28;20391;-45
2023/12/15 00:14:59;;;;;;;;;;;;;;;22.62;35.74;102602.00;5022621;28;19919;-45
2023/12/15 00:17:25;;;;;;;;;;;;;;;22.64;35.87;102610.84;5028677;28;19914;-45
2023/12/15 00:19:50;;;;;;;;;;;;;;;22.65;35.74;102617.13;5014385;28;19959;-46
2023/12/15 00:22:15;;;;;;;;;;;;;;;22.65;35.88;102625.25;5006823;28;19933;-46
2023/12/15 00:24:40;;;;;;;;;;;;;;;22.65;35.69;102626.09;5028582;28;19920;-44
2023/12/15 00:27:05;;;;;;;;;;;;;;;22.64;35.54;102621.69;5019466;28;19937;-45
2023/12/15 00:29:30;;;;;;;;;;;;;;;22.65;35.89;102636.09;5015634;28;19928;-44
2023/12/15 00:31:56;;;;;;;;;;;;;;;22.66;35.71;102632.38;5026701;28;19929;-46
2023/12/15 00:34:21;;;;;;;;;;;;;;;22.68;35.73;102635.78;5009266;28;20338;-44
2023/12/15 00:36:46;;;;;;;;;;;;;;;22.70;35.41;102636.50;5008017;28;19918;-45
2023/12/15 00:39:11;;;;;;;;;;;;;;;22.74;35.20;102639.75;5010286;28;19928;-46
2023/12/15 00:41:36;;;;;;;;;;;;;;;22.75;35.50;102636.88;5039374;28;19959;-43
2023/12/15 00:44:02;;;;;;;;;;;;;;;22.78;34.94;102636.59;5006559;28;19918;-44
2023/12/15 00:46:27;;;;;;;;;;;;;;;22.80;35.27;102636.41;5061132;28;20165;-44
2023/12/15 00:48:52;;;;;;;;;;;;;;;22.82;35.08;102629.00;5033983;28;19913;-44
2023/12/15 00:51:17;;;;;;;;;;;;;;;22.84;34.95;102619.69;5007114;28;19914;-43
2023/12/15 00:53:43;;;;;;;;;;;;;;;22.84;34.81;102629.69;5022712;28;19940;-44
2023/12/15 00:56:09;;;;;;;;;;;;;;;22.86;35.00;102639.38;5015914;28;19918;-44
2023/12/15 00:58:34;;;;;;;;;;;;;;;22.88;35.10;102647.34;5015121;28;19913;-44
2023/12/15 01:00:59;;;;;;;;;;;;;;;22.88;34.61;102648.22;5015749;28;19914;-43
2023/12/15 01:03:24;;;;;;;;;;;;;;;22.89;34.88;102643.63;5028657;28;19913;-45
2023/12/15 01:05:50;;;;;;;;;;;;;;;22.87;34.74;102646.50;5030324;28;20477;-43
2023/12/15 01:08:16;;;;;;;;;;;;;;;22.87;34.91;102648.38;5030579;28;19919;-43
2023/12/15 01:10:41;;;;;;;;;;;;;;;22.87;34.83;102659.22;5024219;28;19922;-43
2023/12/15 01:13:06;;;;;;;;;;;;;;;22.81;34.77;102659.81;5021165;28;19918;-44
2023/12/15 01:15:32;;;;;;;;;;;;;;;22.78;35.06;102666.41;5010006;28;19913;-44
2023/12/15 01:17:57;;;;;;;;;;;;;;;22.74;35.12;102670.44;5027110;28;19943;-42
2023/12/15 01:20:22;;;;;;;;;;;;;;;22.67;35.12;102670.16;5011856;28;19914;-48
2023/12/15 01:22:48;;;;;;;;;;;;;;;22.67;35.13;102675.59;5009132;28;19925;-45
2023/12/15 01:25:13;;;;;;;;;;;;;;;22.64;34.97;102675.91;5024086;28;19938;-47
2023/12/15 01:27:38;;;;;;;;;;;;;;;22.56;35.07;102685.81;5018559;28;19921;-48
2023/12/15 01:30:03;;;;;;;;;;;;;;;22.56;35.31;102692.09;5015814;28;19913;-47
2023/12/15 01:32:29;;;;;;;;;;;;;;;22.52;35.15;102689.81;5027698;28;19962;-47
2023/12/15 01:34:54;;;;;;;;;;;;;;;22.49;35.43;102688.25;5010479;28;19914;-46
2023/12/15 01:37:19;;;;;;;;;;;;;;;22.48;35.13;102689.25;5014535;28;19920;-47
2023/12/15 01:39:44;;;;;;;;;;;;;;;22.48;35.31;102683.84;5035461;28;19920;-44
2023/12/15 01:42:09;;;;;;;;;;;;;;;22.50;35.20;102684.53;5039713;28;19917;-47
2023/12/15 01:44:35;;;;;;;;;;;;;;;22.46;35.28;102691.25;5011386;28;19914;-45
2023/12/15 01:47:01;;;;;;;;;;;;;;;22.41;35.32;102688.13;5010583;28;19921;-44
2023/12/15 01:49:28;;;;;;;;;;;;;;;22.39;35.57;102687.44;5018965;28;19921;-45
2023/12/15 01:51:53;;;;;;;;;;;;;;;22.36;35.69;102685.88;5030172;28;19917;-44
2023/12/15 01:54:18;;;;;;;;;;;;;;;22.33;35.49;102686.16;5013083;28;19929;-45
2023/12/15 01:56:43;;;;;;;;;;;;;;;22.33;35.76;102688.88;5021508;28;19918;-45
2023/12/15 01:59:10;;;;;;;;;;;;;;;22.33;35.61;102694.28;5024319;28;20282;-46
2023/12/15 02:01:35;;;;;;;;;;;;;;;22.33;35.51;102696.16;5008728;28;20012;-47
2023/12/15 02:04:00;;;;;;;;;;;;;;;22.34;35.64;102701.41;5011531;28;19959;-43
2023/12/15 02:06:25;;;;;;;;;;;;;;;22.34;35.73;102719.53;5016614;28;19993;-48
2023/12/15 02:08:51;;;;;;;;;;;;;;;22.33;35.67;102724.09;5026976;28;19912;-45
2023/12/15 02:11:17;;;;;;;;;;;;;;;22.30;35.79;102726.25;5025893;28;19966;-47
2023/12/15 02:13:42;;;;;;;;;;;;;;;22.28;35.74;102730.97;5083410;28;19914;-46
2023/12/15 02:16:07;;;;;;;;;;;;;;;22.28;35.48;102733.69;5014729;28;20407;-46
2023/12/15 02:18:32;;;;;;;;;;;;;;;22.26;35.66;102731.13;5006842;28;19914;-45
2023/12/15 02:20:58;;;;;;;;;;;;;;;22.23;35.84;102731.41;5014731;28;20009;-47
2023/12/15 02:23:23;;;;;;;;;;;;;;;22.21;35.73;102741.53;5011146;28;19918;-45
2023/12/15 02:25:48;;;;;;;;;;;;;;;22.19;35.64;102747.09;5020984;28;19916;-47
2023/12/15 02:28:13;;;;;;;;;;;;;;;22.16;35.87;102754.66;5014614;28;19916;-44
2023/12/15 02:30:38;;;;;;;;;;;;;;;22.15;35.70;102755.69;5064283;28;19972;-43
2023/12/15 02:33:03;;;;;;;;;;;;;;;22.11;35.97;102751.50;5023390;28;19944;-46
2023/12/15 02:35:29;;;;;;;;;;;;;;;22.10;35.86;102749.81;5021713;28;19987;-47
2023/12/15 02:37:54;;;;;;;;;;;;;;;22.08;35.85;102747.22;5023537;28;20237;-45
2023/12/15 02:40:19;;;;;;;;;;;;;;;22.07;35.92;102752.81;5018429;28;19940;-45
2023/12/15 02:42:44;;;;;;;;;;;;;;;22.06;35.95;102748.38;5029501;28;19948;-46
2023/12/15 02:45:09;;;;;;;;;;;;;;;22.05;35.87;102754.81;5040699;28;19912;-43
2023/12/15 02:47:35;;;;;;;;;;;;;;;22.03;36.00;102764.94;5004544;28;19945;-45
2023/12/15 02:50:00;;;;;;;;;;;;;;;22.02;35.78;102769.50;5028224;28;19914;-47
2023/12/15 02:52:25;;;;;;;;;;;;;;;22.00;36.06;102766.06;5023391;28;19976;-45
2023/12/15 02:54:50;;;;;;;;;;;;;;;;;;5014425;28;19953;-46
2023/12/15 02:57:15;;;;;;;;;;;;;;;21.95;36.03;102761.06;5029733;28;19918;-48
2023/12/15 02:59:40;;;;;;;;;;;;;;;21.93;36.02;102768.50;5012210;28;19914;-48
2023/12/15 03:02:06;;;;;;;;;;;;;;;21.90;36.32;102768.78;5003865;28;19918;-45
2023/12/15 03:04:31;;;;;;;;;;;;;;;21.89;36.17;102768.94;5034917;28;19917;-46
2023/12/15 03:06:56;;;;;;;;;;;;;;;21.87;36.42;102771.75;5028619;28;19909;-45
2023/12/15 03:09:21;;;;;;;;;;;;;;;21.84;36.07;102763.94;5018197;28;19926;-44
2023/12/15 03:11:47;;;;;;;;;;;;;;;21.84;36.19;102777.50;5017755;28;19936;-44
2023/12/15 03:14:12;;;;;;;;;;;;;;;21.83;36.20;102781.16;5031497;28;19918;-47
2023/12/15 03:16:37;;;;;;;;;;;;;;;21.81;36.43;102788.59;5031139;28;19999;-49
2023/12/15 03:19:02;;;;;;;;;;;;;;;21.81;36.49;102799.44;5040261;28;19952;-45
2023/12/15 03:21:27;;;;;;;;;;;;;;;21.81;36.36;102793.16;5033424;28;20474;-45
2023/12/15 03:23:53;;;;;;;;;;;;;;;21.80;36.12;102802.28;5017724;28;20435;-46
2023/12/15 03:26:18;;;;;;;;;;;;;;;21.79;36.16;102809.56;5012599;28;19917;-48
2023/12/15 03:28:43;;;;;;;;;;;;;;;21.79;36.23;102822.22;5017784;28;19912;-44
2023/12/15 03:31:08;;;;;;;;;;;;;;;21.79;36.18;102819.50;5027910;28;19925;-45
2023/12/15 03:33:37;;;;;;;;;;;;;;;21.80;36.47;102824.81;5019369;28;19974;-47
2023/12/15 03:36:02;;;;;;;;;;;;;;;21.77;36.43;102827.78;5011194;28;19925;-48
2023/12/15 03:38:27;;;;;;;;;;;;;;;21.73;36.44;102829.06;5030274;28;19913;-46
2023/12/15 03:40:53;;;;;;;;;;;;;;;21.71;36.50;102822.94;5008824;28;19921;-47
2023/12/15 03:43:18;;;;;;;;;;;;;;;21.69;36.66;102831.19;5017371;28;19918;-47
2023/12/15 03:45:43;;;;;;;;;;;;;;;21.68;36.36;102834.06;5022709;28;19917;-48
2023/12/15 03:48:08;;;;;;;;;;;;;;;21.66;36.38;102820.66;5018750;28;19917;-46
2023/12/15 03:50:33;;;;;;;;;;;;;;;21.68;36.39;102815.94;5019417;28;19924;-46
2023/12/15 03:52:59;;;;;;;;;;;;;;;21.67;36.36;102816.09;5027249;28;19924;-47
2023/12/15 03:55:24;;;;;;;;;;;;;;;21.66;36.54;102823.38;5013909;28;19978;-44
2023/12/15 03:57:49;;;;;;;;;;;;;;;21.64;36.44;102813.66;5012678;28;19933;-45
2023/12/15 04:00:14;;;;;;;;;;;;;;;21.64;36.41;102827.22;5035779;28;20376;-44
2023/12/15 04:02:40;;;;;;;;;;;;;;;21.64;36.55;102822.66;5013932;28;20323;-45
2023/12/15 04:05:05;;;;;;;;;;;;;;;21.61;36.57;102822.06;5012118;28;20272;-47
2023/12/15 04:07:30;;;;;;;;;;;;;;;21.62;36.36;102829.19;5029332;28;19916;-44
2023/12/15 04:09:56;;;;;;;;;;;;;;;21.58;36.80;102834.03;5040575;28;19921;-44
2023/12/15 04:12:21;;;;;;;;;;;;;;;21.57;36.61;102828.75;5004713;28;19981;-47
2023/12/15 04:14:46;;;;;;;;;;;;;;;21.54;36.56;102837.16;5027071;28;19914;-44
2023/12/15 04:17:11;;;;;;;;;;;;;;;21.51;36.82;102841.00;5025654;28;19991;-47
2023/12/15 04:19:37;;;;;;;;;;;;;;;21.51;36.92;102851.81;5022800;28;19924;-46
2023/12/15 04:22:02;;;;;;;;;;;;;;;21.50;36.81;102854.69;5020070;28;19922;-43
2023/12/15 04:24:27;;;;;;;;;;;;;;;21.48;37.06;102856.66;5037672;28;19912;-45
2023/12/15 04:26:53;;;;;;;;;;;;;;;21.46;36.76;102854.94;5040626;28;19914;-44
2023/12/15 04:29:18;;;;;;;;;;;;;;;21.44;36.82;102854.22;5046799;28;19950;-45
2023/12/15 04:31:43;;;;;;;;;;;;;;;21.44;36.96;102854.22;5022936;28;19967;-43
2023/12/15 04:34:09;;;;;;;;;;;;;;;21.41;36.95;102856.38;5082320;28;19953;-45
2023/12/15 04:36:34;;;;;;;;;;;;;;;21.39;36.90;102850.22;5015949;28;19944;-44
2023/12/15 04:38:59;;;;;;;;;;;;;;;21.37;36.88;102854.94;5027498;28;19920;-44
2023/12/15 04:41:25;;;;;;;;;;;;;;;21.34;37.37;102857.91;5026728;28;20384;-45
2023/12/15 04:43:50;;;;;;;;;;;;;;;21.33;36.93;102853.50;5025798;28;20000;-44
2023/12/15 04:46:29;;;;;;;;;;;;;;;21.30;37.06;102854.59;5023465;28;20041;-43
2023/12/15 04:48:55;;;;;;;;;;;;;;;21.29;37.07;102860.13;5016838;28;19914;-43
2023/12/15 04:51:20;;;;;;;;;;;;;;;21.26;37.20;102865.81;5007400;28;19993;-45
2023/12/15 04:53:46;;;;;;;;;;;;;;;21.23;37.52;102861.53;5018414;28;19937;-43
2023/12/15 04:56:11;;;;;;;;;;;;;;;20.81;37.60;102796.72;5039600;28;19917;-46
2023/12/15 04:58:37;;;;;;;;;;;;;;;21.20;37.38;102867.22;5023665;28;19913;-45
2023/12/15 05:01:02;;;;;;;;;;;;;;;21.17;37.55;102875.59;5022419;28;19966;-46
2023/12/15 05:03:28;;;;;;;;;;;;;;;21.15;37.60;102867.66;5085209;28;19918;-45
2023/12/15 05:05:53;;;;;;;;;;;;;;;21.14;37.73;102873.16;5012700;28;19937;-44
2023/12/15 05:08:18;;;;;;;;;;;;;;;21.12;37.78;102870.59;5015578;28;19967;-47
2023/12/15 05:10:43;;;;;;;;;;;;;;;21.11;38.07;102881.53;5023675;28;19918;-45
2023/12/15 05:13:08;;;;;;;;;;;;;;;21.09;37.91;102881.69;5001029;28;19933;-43
2023/12/15 05:15:33;;;;;;;;;;;;;;;21.07;38.30;102886.41;5014714;28;19918;-46
2023/12/15 05:17:59;;;;;;;;;;;;;;;21.06;38.08;102892.78;5017132;28;19914;-46
2023/12/15 05:20:24;;;;;;;;;;;;;;;21.05;38.31;102898.31;5010821;28;19913;-46
2023/12/15 05:22:49;;;;;;;;;;;;;;;21.04;38.06;102893.91;5015295;28;20258;-44
2023/12/15 05:25:14;;;;;;;;;;;;;;;21.01;38.17;102905.00;5003872;28;20169;-46
2023/12/15 05:27:39;;;;;;;;;;;;;;;21.00;38.46;102906.00;5018524;28;19921;-43
2023/12/15 05:30:05;;;;;;;;;;;;;;;21.01;38.33;102915.81;5088969;28;19961;-45
2023/12/15 05:32:30;;;;;;;;;;;;;;;20.98;38.59;102911.50;5025552;28;19935;-43
2023/12/15 05:34:55;;;;;;;;;;;;;;;20.97;38.70;102912.50;5068462;28;19925;-43
2023/12/15 05:37:21;;;;;;;;;;;;;;;20.96;38.66;102916.22;5012649;28;20327;-44
2023/12/15 05:39:46;;;;;;;;;;;;;;;20.95;38.70;102920.78;5037328;28;20015;-44
2023/12/15 05:42:11;;;;;;;;;;;;;;;20.94;38.60;102915.47;5018891;28;19930;-45
2023/12/15 05:44:40;;;;;;;;;;;;;;;20.93;38.83;102922.72;5016839;28;19918;-44
2023/12/15 05:47:05;;;;;;;;;;;;;;;20.93;38.64;102925.44;5066185;28;19914;-47
2023/12/15 05:49:30;;;;;;;;;;;;;;;20.91;38.97;102926.56;5018306;28;19914;-44
2023/12/15 05:51:56;;;;;;;;;;;;;;;20.90;38.99;102928.44;5004517;28;20327;-44
2023/12/15 05:54:21;;;;;;;;;;;;;;;20.90;38.68;102927.56;5014343;28;19922;-45
2023/12/15 05:56:46;;;;;;;;;;;;;;;20.89;38.99;102945.63;5026067;28;19939;-47
2023/12/15 05:59:11;;;;;;;;;;;;;;;20.88;39.04;102951.16;5015631;28;19929;-45
2023/12/15 06:01:36;;;;;;;;;;;;;;;20.87;39.11;102952.16;5006952;28;19922;-44
2023/12/15 06:04:01;;;;;;;;;;;;;;;20.85;38.89;102957.69;5017784;28;19922;-46
2023/12/15 06:06:27;;;;;;;;;;;;;;;20.85;39.13;102967.66;5078555;28;19916;-43
2023/12/15 06:08:52;;;;;;;;;;;;;;;20.83;39.15;102966.94;5018503;28;19921;-45
2023/12/15 06:11:17;;;;;;;;;;;;;;;20.82;39.01;102966.09;5039892;28;20011;-44
2023/12/15 06:13:43;;;;;;;;;;;;;;;20.82;39.25;102971.50;5008200;28;20429;-45
2023/12/15 06:16:08;;;;;;;;;;;;;;;20.80;39.27;102968.03;5015679;28;20039;-47
2023/12/15 06:18:33;;;;;;;;;;;;;;;20.80;38.99;102970.75;5034329;28;19912;-44
2023/12/15 06:20:58;;;;;;;;;;;;;;;20.79;39.23;102968.19;5019270;28;19936;-44
2023/12/15 06:23:24;;;;;;;;;;;;;;;20.77;39.07;102970.16;5015876;28;20400;-45
2023/12/15 06:25:49;;;;;;;;;;;;;;;20.76;39.01;102980.09;5020952;28;19914;-43
2023/12/15 06:28:14;;;;;;;;;;;;;;;20.75;39.11;102980.25;5077949;28;19914;-45
2023/12/15 06:30:39;;;;;;;;;;;;;;;20.72;39.20;102982.22;5013110;28;19938;-44
2023/12/15 06:33:05;;;;;;;;;;;;;;;20.74;39.30;102981.25;5019264;28;19964;-44
2023/12/15 06:35:30;;;;;;;;;;;;;;;20.72;39.29;102978.66;5005269;28;19953;-45
2023/12/15 06:37:55;;;;;;;;;;;;;;;20.71;39.21;102977.78;5004008;28;20364;-44
2023/12/15 06:40:20;;;;;;;;;;;;;;;20.69;38.96;102987.03;5036618;28;19990;-42
2023/12/15 06:42:46;;;;;;;;;;;;;;;20.68;39.30;102986.16;5027223;28;19937;-44
2023/12/15 06:45:11;;;;;;;;;;;;;;;20.66;39.21;102988.16;5005472;28;19917;-43
2023/12/15 06:47:36;;;;;;;;;;;;;;;20.65;39.04;102986.44;5013110;28;19913;-43
2023/12/15 06:50:01;;;;;;;;;;;;;;;20.64;39.03;103000.91;5034612;28;19999;-44
2023/12/15 06:52:27;;;;;;;;;;;;;;;20.64;39.24;103003.63;5014328;28;20048;-45
2023/12/15 06:54:52;;;;;;;;;;;;;;;20.64;39.03;102991.97;5041129;28;20008;-44
2023/12/15 06:57:17;;;;;;;;;;;;;;;20.62;39.24;102996.66;5087059;28;19924;-45
2023/12/15 06:59:42;;;;;;;;;;;;;;;20.60;39.08;102996.78;5010332;28;19921;-45
2023/12/15 07:02:07;;;;;;;;;;;;;;;20.60;39.26;103002.19;5009341;28;19918;-43
2023/12/15 07:04:33;;;;;;;;;;;;;;;20.59;39.42;103008.56;5009755;28;19988;-44
2023/12/15 07:06:58;;;;;;;;;;;;;;;20.59;39.34;103013.13;5082127;28;19924;-44
2023/12/15 07:09:23;;;;;;;;;;;;;;;20.59;39.17;103013.13;5013972;28;19914;-46
2023/12/15 07:11:48;;;;;;;;;;;;;;;20.58;38.99;103014.13;5032297;28;19914;-44
2023/12/15 07:14:13;;;;;;;;;;;;;;;20.58;39.33;103019.50;5080552;28;20013;-45
2023/12/15 07:16:39;;;;;;;;;;;;;;;20.57;39.07;103009.69;5016268;28;19967;-43
2023/12/15 07:19:04;;;;;;;;;;;;;;;20.55;39.23;103012.50;5010349;28;19939;-46
2023/12/15 07:21:29;;;;;;;;;;;;;;;20.55;39.20;103023.31;5015760;28;19982;-45
2023/12/15 07:23:55;;;;;;;;;;;;;;;20.54;39.38;103034.28;5022795;28;19913;-46
2023/12/15 07:26:20;;;;;;;;;;;;;;;20.53;39.28;103027.16;5018765;28;20063;-45
2023/12/15 07:28:45;;;;;;;;;;;;;;;20.53;39.05;103027.16;5020104;28;19914;-47
2023/12/15 07:31:10;;;;;;;;;;;;;;;20.51;39.10;103029.13;5020885;28;20299;-44
2023/12/15 07:33:35;;;;;;;;;;;;;;;20.50;39.11;103032.81;5008890;28;19925;-46
2023/12/15 07:36:01;;;;;;;;;;;;;;;20.50;39.11;103040.91;5084073;28;19913;-47
2023/12/15 07:38:26;;;;;;;;;;;;;;;20.48;39.13;103046.47;5015278;28;19960;-48
2023/12/15 07:40:54;;;;;;;;;;;;;;;20.47;39.18;103050.09;5007786;28;19978;-46
2023/12/15 07:43:19;;;;;;;;;;;;;;;20.45;39.08;103058.34;5021631;28;19922;-47
2023/12/15 07:45:44;;;;;;;;;;;;;;;20.44;39.19;103064.72;5016014;28;20287;-48
2023/12/15 07:48:10;;;;;;;;;;;;;;;20.42;39.23;103069.38;5017068;28;19965;-45
2023/12/15 07:50:36;;;;;;;;;;;;;;;20.42;39.32;103069.38;5084633;28;19924;-47
2023/12/15 07:53:01;;;;;;;;;;;;;;;20.42;39.30;103068.53;5019810;28;19922;-45
2023/12/15 07:55:26;;;;;;;;;;;;;;;20.41;39.16;103077.63;5006227;28;20074;-48
2023/12/15 07:57:51;;;;;;;;;;;;;;;20.40;39.35;103082.19;5021005;28;20132;-47
2023/12/15 08:00:16;;;;;;;;;;;;;;;20.41;39.26;103086.59;5028310;28;19916;-44
2023/12/15 08:02:43;;;;;;;;;;;;;;;20.39;39.48;103088.56;5024844;28;19921;-46
2023/12/15 08:05:09;;;;;;;;;;;;;;;20.40;39.20;103097.53;5051745;28;19916;-45
2023/12/15 08:07:34;;;;;;;;;;;;;;;20.39;39.27;103102.09;5028104;28;19925;-44
2023/12/15 08:09:59;;;;;;;;;;;;;;;20.40;39.54;103105.66;5018309;28;19920;-44
2023/12/15 08:12:25;;;;;;;;;;;;;;;20.39;39.40;103117.41;5007822;28;19920;-45
2023/12/15 08:14:50;;;;;;;;;;;;;;;20.39;39.16;103112.00;5025622;28;19921;-43
2023/12/15 08:17:15;;;;;;;;;;;;;;;20.38;39.38;103123.81;5021615;28;19918;-45
2023/12/15 08:19:41;;;;;;;;;;;;;;;20.38;39.27;103124.66;5018868;28;20331;-42
2023/12/15 08:22:06;;;;;;;;;;;;;;;20.37;39.50;103130.19;5031586;28;19974;-44
2023/12/15 08:24:31;;;;;;;;;;;;;;;20.37;39.46;103141.88;5015448;28;19918;-44
2023/12/15 08:26:57;;;;;;;;;;;;;;;20.38;39.21;103140.00;5011738;28;19942;-44
2023/12/15 08:29:23;;;;;;;;;;;;;;;20.37;39.53;103141.00;5027377;28;19920;-45
2023/12/15 08:31:49;;;;;;;;;;;;;;;20.37;39.23;103144.56;5022434;28;20371;-46
2023/12/15 08:34:14;;;;;;;;;;;;;;;20.36;39.43;103148.25;5005513;28;19914;-43
2023/12/15 08:36:39;;;;;;;;;;;;;;;20.36;39.49;103148.25;5061491;28;19918;-45
2023/12/15 08:39:04;;;;;;;;;;;;;;;20.35;39.51;103160.06;5012003;28;19921;-46
2023/12/15 08:41:30;;;;;;;;;;;;;;;20.35;39.36;103157.34;5006260;28;20332;-47
2023/12/15 08:43:55;;;;;;;;;;;;;;;20.35;39.33;103165.47;5011779;28;19913;-45
2023/12/15 08:46:20;;;;;;;;;;;;;;;20.36;39.24;103161.75;5026416;28;20337;-46
2023/12/15 08:48:45;;;;;;;;;;;;;;;20.35;39.51;103168.16;5022607;28;20405;-47
2023/12/15 08:51:10;;;;;;;;;;;;;;;20.36;39.49;103169.00;5009065;28;19922;-47
2023/12/15 08:53:36;;;;;;;;;;;;;;;20.35;39.13;103176.25;5023996;28;20439;-45
2023/12/15 08:56:02;;;;;;;;;;;;;;;20.36;39.16;103169.88;5007884;28;19922;-49
2023/12/15 08:58:28;;;;;;;;;;;;;;;20.37;39.19;103174.28;5016902;28;19914;-45
2023/12/15 09:00:54;;;;;;;;;;;;;;;20.38;39.06;103173.28;5024715;28;19918;-43
2023/12/15 09:03:19;;;;;;;;;;;;;;;20.39;39.42;103185.84;5024234;28;19972;-43
2023/12/15 09:05:44;;;;;;;;;;;;;;;20.40;39.14;103194.81;5021160;28;19913;-47
2023/12/15 09:08:09;;;;;;;;;;;;;;;20.40;39.17;103201.06;5018255;28;19918;-47
2023/12/15 09:10:41;;;;;;;;;;;;;;;20.42;39.20;103200.94;5028105;28;20308;-45
2023/12/15 09:13:06;;;;;;;;;;;;;;;20.42;39.32;103209.91;5012897;28;19939;-48
2023/12/15 09:15:31;;;;;;;;;;;;;;;20.44;39.40;103209.78;5040178;28;19949;-47
2023/12/15 09:17:57;;;;;;;;;;;;;;;20.45;39.22;103206.94;5022857;28;19914;-45
2023/12/15 09:20:24;;;;;;;;;;;;;;;20.46;39.09;103224.88;5007547;28;20008;-46
2023/12/15 09:22:49;;;;;;;;;;;;;;;20.47;39.16;103226.63;5021080;28;19928;-45
2023/12/15 09:25:14;;;;;;;;;;;;;;;20.50;38.87;103241.75;5009997;28;19918;-45
2023/12/15 09:27:39;;;;;;;;;;;;;;;20.53;39.27;103248.75;5040289;28;19936;-45
2023/12/15 09:30:05;;;;;;;;;;;;;;;20.55;38.86;103263.00;5024455;28;19921;-44
2023/12/15 09:32:30;;;;;;;;;;;;;;;20.56;39.07;103262.91;5018735;28;19924;-44
2023/12/15 09:34:55;;;;;;;;;;;;;;;20.57;38.81;103264.59;5007106;28;19924;-46
2023/12/15 09:37:22;;;;;;;;;;;;;;;20.60;38.96;103271.59;5015153;28;19917;-45
2023/12/15 09:39:47;;;;;;;;;;;;;;;20.62;39.11;103275.06;5036553;28;19912;-45
2023/12/15 09:42:14;;;;;;;;;;;;;;;20.64;38.85;103283.88;5005086;28;19922;-47
2023/12/15 09:44:39;;;;;;;;;;;;;;;20.65;38.70;103278.38;5005044;28;19945;-47
2023/12/15 09:47:04;;;;;;;;;;;;;;;20.69;38.91;103285.25;5017208;28;19922;-44
2023/12/15 09:49:30;;;;;;;;;;;;;;;20.71;38.64;103285.13;5002153;28;20358;-46
2023/12/15 09:51:56;;;;;;;;;;;;;;;20.72;38.59;103285.00;5016011;28;19963;-45
2023/12/15 09:54:21;;;;;;;;;;;;;;;20.77;38.82;103289.16;5012979;28;19929;-46
2023/12/15 09:56:46;;;;;;;;;;;;;;;20.78;38.48;103280.94;5012433;28;19998;-47
2023/12/15 09:59:12;;;;;;;;;;;;;;;20.81;38.79;103280.69;5018429;28;19920;-46
2023/12/15 10:01:37;;;;;;;;;;;;;;;20.84;38.45;103288.56;5028876;28;19968;-47
2023/12/15 10:04:03;;;;;;;;;;;;;;;20.87;38.64;103282.06;5014801;28;19942;-48
2023/12/15 10:06:29;;;;;;;;;;;;;;;20.91;38.40;103297.03;5009195;28;20453;-44
2023/12/15 10:08:54;;;;;;;;;;;;;;;20.93;38.23;103295.06;5010987;28;19918;-44
2023/12/15 10:11:19;;;;;;;;;;;;;;;20.95;38.33;103302.09;5030703;28;19921;-44
2023/12/15 10:13:44;;;;;;;;;;;;;;;20.97;38.20;103308.22;5006620;28;19913;-47
2023/12/15 10:16:09;;;;;;;;;;;;;;;21.02;38.41;103306.97;5024616;28;19957;-46
2023/12/15 10:18:35;;;;;;;;;;;;;;;21.04;38.18;103315.84;5023061;28;19917;-47
2023/12/15 10:21:00;;;;;;;;;;;;;;;21.08;38.40;103317.31;5007453;28;19914;-44
2023/12/15 10:23:26;;;;;;;;;;;;;;;21.10;38.30;103320.75;5010639;28;19922;-48
2023/12/15 10:25:52;;;;;;;;;;;;;;;21.12;38.47;103325.06;5076978;28;19935;-43
2023/12/15 10:28:17;;;;;;;;;;;;;;;21.14;38.24;103339.31;5017425;28;19921;-46
2023/12/15 10:30:42;;;;;;;;;;;;;;;21.16;38.41;103333.78;5090910;28;19971;-46
2023/12/15 10:33:08;;;;;;;;;;;;;;;21.18;38.24;103342.63;5033017;28;19913;-44
2023/12/15 10:35:33;;;;;;;;;;;;;;;21.20;38.40;103340.66;5021581;28;19957;-48
2023/12/15 10:37:58;;;;;;;;;;;;;;;21.23;38.33;103353.94;5014057;28;20299;-45
2023/12/15 10:40:24;;;;;;;;;;;;;;;21.27;38.15;103358.09;5073965;28;19918;-44
2023/12/15 10:42:50;;;;;;;;;;;;;;;21.30;38.25;103343.47;5072082;28;19916;-45
2023/12/15 10:45:15;;;;;;;;;;;;;;;21.32;38.31;103341.53;5068390;28;19914;-47
2023/12/15 10:47:41;;;;;;;;;;;;;;;21.39;38.16;103340.03;5070405;28;19975;-43
2023/12/15 10:50:08;;;;;;;;;;;;;;;21.44;37.92;103343.22;5029701;28;19922;-44
2023/12/15 10:52:35;;;;;;;;;;;;;;;21.49;37.89;103348.25;5062137;28;19922;-45
2023/12/15 10:55:03;;;;;;;;;;;;;;;21.52;37.60;103342.59;5072760;28;19922;-47
2023/12/15 10:57:30;;;;;;;;;;;;;;;21.53;37.64;103344.31;5023986;28;19939;-48
2023/12/15 10:59:55;;;;;;;;;;;;;;;21.56;37.98;103346.78;5006094;28;19914;-43
2023/12/15 11:02:21;;;;;;;;;;;;;;;21.59;37.63;103355.50;5018966;28;19939;-43
2023/12/15 11:04:49;;;;;;;;;;;;;;;21.63;37.55;103359.69;5068972;28;19983;-48
2023/12/15 11:07:19;;;;;;;;;;;;;;;21.64;37.59;103353.25;5067508;28;20432;-48
2023/12/15 11:09:44;;;;;;;;;;;;;;;21.70;37.58;103358.16;5062842;28;19918;-46
2023/12/15 11:12:25;;;;;;;;;;;;;;;21.75;37.69;103355.09;5030507;28;19956;-45
2023/12/15 11:14:50;;;;;;;;;;;;;;;21.78;37.42;103353.97;5017662;28;19914;-42
2023/12/15 11:17:16;;;;;;;;;;;;;;;21.81;37.58;103365.41;5008904;28;19964;-46
2023/12/15 11:19:41;;;;;;;;;;;;;;;21.85;37.39;103363.28;5024797;28;20380;-48
2023/12/15 11:22:08;;;;;;;;;;;;;;;21.94;37.30;103370.66;5069100;28;19925;-48
2023/12/15 11:24:34;;;;;;;;;;;;;;;21.98;37.09;103373.97;5068330;28;19928;-48
2023/12/15 11:26:59;;;;;;;;;;;;;;;22.00;37.27;103375.53;5063907;28;19914;-44
2023/12/15 11:29:24;;;;;;;;;;;;;;;22.01;37.19;103384.53;5020413;28;19944;-45
2023/12/15 11:31:53;;;;;;;;;;;;;;;22.00;37.39;103391.78;5011243;28;20380;-45
2023/12/15 11:34:38;;;;;;;;;;;;;;;22.02;37.45;103388.97;5005539;28;19914;-46
2023/12/15 11:37:03;;;;;;;;;;;;;;;22.08;37.21;103386.59;5062068;28;19974;-44
2023/12/15 11:39:28;;;;;;;;;;;;;;;22.11;37.15;103377.34;5014335;28;19973;-47
2023/12/15 11:41:55;;;;;;;;;;;;;;;22.16;36.88;103364.28;5070210;28;19938;-43
2023/12/15 11:44:23;;;;;;;;;;;;;;;22.17;36.83;103366.00;5063771;28;19940;-43
2023/12/15 11:46:49;;;;;;;;;;;;;;;22.21;36.78;103368.31;5011736;28;19928;-43
2023/12/15 11:49:23;;;;;;;;;;;;;;;22.26;37.09;103359.81;5015085;28;19953;-44
2023/12/15 11:51:50;;;;;;;;;;;;;;;22.28;36.92;103349.69;5027322;28;19916;-45
2023/12/15 11:54:15;;;;;;;;;;;;;;;22.33;36.68;103350.16;5022883;28;19929;-44
2023/12/15 11:56:40;;;;;;;;;;;;;;;22.40;36.79;103358.63;5024961;28;19933;-45
2023/12/15 11:59:05;;;;;;;;;;;;;;;22.43;36.82;103361.09;5030139;28;19985;-47
2023/12/15 12:01:35;;;;;;;;;;;;;;;22.47;36.37;103365.22;5013650;28;19914;-43
2023/12/15 12:04:00;;;;;;;;;;;;;;;22.50;36.48;103374.94;5066029;28;19948;-44
2023/12/15 12:06:26;;;;;;;;;;;;;;;22.55;36.24;103369.97;5031110;28;19914;-45
2023/12/15 12:08:51;;;;;;;;;;;;;;;22.59;36.15;103366.88;5013142;28;19918;-43
2023/12/15 12:11:16;;;;;;;;;;;;;;;22.62;36.38;103365.75;5025263;28;19944;-43
2023/12/15 12:13:42;;;;;;;;;;;;;;;22.64;36.06;103366.47;5066596;28;20381;-47
2023/12/15 12:16:07;;;;;;;;;;;;;;;22.62;36.43;103360.34;5006343;28;20016;-46
2023/12/15 12:18:32;;;;;;;;;;;;;;;22.60;36.27;103349.63;5067800;28;19918;-48
2023/12/15 12:21:04;;;;;;;;;;;;;;;22.58;36.41;103343.47;5023753;28;19918;-45
2023/12/15 12:23:30;;;;;;;;;;;;;;;22.56;36.17;103353.59;5014651;28;19922;-43
2023/12/15 12:25:55;;;;;;;;;;;;;;;22.54;36.33;103354.72;5026413;28;19926;-45
2023/12/15 12:28:21;;;;;;;;;;;;;;;22.51;36.38;103360.41;5064812;28;19925;-43